Time;durP1;ratioP1;P1;durP2;ratioP2;P2;SDS_P1;SDS_P2;PMS_P1;PMS_P2;Temp;Humidity;BMP_temperature;BMP_pressure;BME280_temperature;BME280_humidity;BME280_pressure;Samples;Min_cycle;Max_cycle;Signal;HPM_P1;HPM_P2
2024/03/28 00:01:16;;;;;;;;;;;;;;;9.82;61.74;97316.41;4185991;28;19916;-71
2024/03/28 00:03:16;;;;;;;;;;;;;;;9.76;61.92;97314.56;4182724;28;19920;-71
2024/03/28 00:05:17;;;;;;;;;;;;;;;9.86;61.65;97321.31;4181092;28;19913;-71
2024/03/28 00:07:17;;;;;;;;;;;;;;;9.79;61.56;97324.84;4181055;28;19912;-71
2024/03/28 00:09:17;;;;;;;;;;;;;;;9.81;60.95;97312.13;4177207;28;19917;-72
2024/03/28 00:11:18;;;;;;;;;;;;;;;9.70;61.22;97315.41;4163509;28;20285;-71
2024/03/28 00:13:19;;;;;;;;;;;;;;;9.64;61.17;97308.19;4163456;28;19913;-71
2024/03/28 00:15:19;;;;;;;;;;;;;;;9.55;61.34;97299.59;4164086;28;20376;-70
2024/03/28 00:17:19;;;;;;;;;;;;;;;9.55;61.30;97293.44;4165931;28;19909;-70
2024/03/28 00:19:20;;;;;;;;;;;;;;;9.35;61.72;97294.28;4167268;28;20000;-70
2024/03/28 00:21:20;;;;;;;;;;;;;;;9.42;61.57;97292.41;4169601;28;19995;-70
2024/03/28 00:23:20;;;;;;;;;;;;;;;9.24;61.91;97290.34;4166769;28;20429;-71
2024/03/28 00:25:21;;;;;;;;;;;;;;;9.25;61.72;97291.19;4166061;28;19931;-71
2024/03/28 00:27:21;;;;;;;;;;;;;;;9.19;61.74;97298.94;4165519;28;19920;-70
2024/03/28 00:29:22;;;;;;;;;;;;;;;9.22;62.04;97289.72;4165427;28;19952;-70
2024/03/28 00:31:22;;;;;;;;;;;;;;;9.15;62.15;97287.06;4165806;28;19913;-71
2024/03/28 00:33:22;;;;;;;;;;;;;;;9.38;61.46;97279.69;4177786;28;20003;-70
2024/03/28 00:35:23;;;;;;;;;;;;;;;9.25;61.57;97281.31;4180406;28;19908;-70
2024/03/28 00:37:23;;;;;;;;;;;;;;;9.40;61.30;97283.00;4168263;28;19963;-71
2024/03/28 00:39:23;;;;;;;;;;;;;;;9.32;61.34;97278.69;4176442;28;19960;-72
2024/03/28 00:41:24;;;;;;;;;;;;;;;9.46;61.12;97276.81;4150530;28;20437;-71
2024/03/28 00:43:24;;;;;;;;;;;;;;;9.45;61.13;97281.31;4167852;28;20007;-70
2024/03/28 00:45:25;;;;;;;;;;;;;;;9.30;61.53;97281.56;4167433;28;19920;-70
2024/03/28 00:47:25;;;;;;;;;;;;;;;9.44;61.32;97269.03;4169709;28;19916;-70
2024/03/28 00:49:25;;;;;;;;;;;;;;;9.38;61.45;97269.03;4190943;28;19912;-71
2024/03/28 00:51:26;;;;;;;;;;;;;;;9.34;61.97;97258.78;4166910;28;20387;-70
2024/03/28 00:53:27;;;;;;;;;;;;;;;9.25;62.04;97256.53;4181338;28;19960;-72
2024/03/28 00:55:27;;;;;;;;;;;;;;;9.29;62.23;97265.75;4184821;28;19913;-71
2024/03/28 00:57:27;;;;;;;;;;;;;;;9.37;62.13;97278.88;4197840;28;19927;-71
2024/03/28 00:59:28;;;;;;;;;;;;;;;9.36;62.40;97270.06;4198031;28;19923;-72
2024/03/28 01:01:28;;;;;;;;;;;;;;;9.31;62.58;97275.16;4198780;28;19916;-71
2024/03/28 01:03:29;;;;;;;;;;;;;;;9.02;63.66;97276.38;4197401;28;19908;-72
2024/03/28 01:05:29;;;;;;;;;;;;;;;9.12;63.61;97274.16;4165103;28;19920;-71
2024/03/28 01:07:29;;;;;;;;;;;;;;;9.18;63.42;97268.00;4181411;28;19995;-70
2024/03/28 01:09:30;;;;;;;;;;;;;;;9.13;63.57;97270.47;4162966;28;19924;-71
2024/03/28 01:11:30;;;;;;;;;;;;;;;9.13;63.99;97269.63;4183995;28;19994;-70
2024/03/28 01:13:30;;;;;;;;;;;;;;;9.23;63.51;97266.56;4183151;28;20349;-70
2024/03/28 01:15:31;;;;;;;;;;;;;;;9.12;63.42;97258.16;4181473;28;19915;-70
2024/03/28 01:17:32;;;;;;;;;;;;;;;9.24;63.18;97263.69;4177881;28;19948;-70
2024/03/28 01:19:32;;;;;;;;;;;;;;;9.17;63.44;97263.69;4164580;28;19980;-70
2024/03/28 01:21:32;;;;;;;;;;;;;;;9.17;63.51;97258.34;4183555;28;19913;-71
2024/03/28 01:23:33;;;;;;;;;;;;;;;9.02;63.42;97257.72;4167301;28;19912;-71
2024/03/28 01:25:34;;;;;;;;;;;;;;;8.78;64.05;97275.94;4170513;28;19934;-70
2024/03/28 01:27:34;;;;;;;;;;;;;;;8.79;64.42;97261.56;4163331;28;19909;-71
2024/03/28 01:29:35;;;;;;;;;;;;;;;8.53;64.91;97255.16;4176280;28;19908;-73
2024/03/28 01:31:35;;;;;;;;;;;;;;;8.49;65.10;97247.75;4178014;28;19960;-70
2024/03/28 01:33:35;;;;;;;;;;;;;;;8.53;64.92;97251.69;4164898;28;19920;-70
2024/03/28 01:35:36;;;;;;;;;;;;;;;8.52;65.17;97258.03;4165444;28;19909;-71
2024/03/28 01:37:36;;;;;;;;;;;;;;;8.38;65.48;97257.13;4164488;28;19958;-70
2024/03/28 01:39:37;;;;;;;;;;;;;;;8.41;65.25;97262.03;4148680;28;19955;-70
2024/03/28 01:41:37;;;;;;;;;;;;;;;8.37;65.30;97261.63;4164759;28;19982;-71
2024/03/28 01:43:39;;;;;;;;;;;;;;;8.45;65.17;97263.28;4169010;28;19909;-71
2024/03/28 01:45:40;;;;;;;;;;;;;;;8.35;65.08;97266.34;4181196;28;19919;-71
2024/03/28 01:47:40;;;;;;;;;;;;;;;8.12;65.64;97269.31;4174490;28;20289;-75
2024/03/28 01:49:41;;;;;;;;;;;;;;;8.12;65.52;97261.31;4169748;28;19995;-71
2024/03/28 01:51:42;;;;;;;;;;;;;;;8.23;65.37;97247.44;4154412;28;19909;-71
2024/03/28 01:53:43;;;;;;;;;;;;;;;8.35;65.21;97249.53;4160147;28;19909;-71
2024/03/28 01:55:43;;;;;;;;;;;;;;;8.25;65.09;97245.41;4172107;28;20597;-71
2024/03/28 01:57:44;;;;;;;;;;;;;;;8.15;65.30;97244.94;4180284;28;19916;-71
2024/03/28 01:59:48;;;;;;;;;;;;;;;8.30;64.94;97242.13;4191901;28;19919;-74
2024/03/28 02:01:49;;;;;;;;;;;;;;;8.46;64.03;97240.13;4178424;28;19962;-70
2024/03/28 02:03:49;;;;;;;;;;;;;;;8.34;63.90;97242.56;4180720;28;19995;-71
2024/03/28 02:05:50;;;;;;;;;;;;;;;8.37;63.77;97236.84;4181507;28;19917;-71
2024/03/28 02:07:51;;;;;;;;;;;;;;;8.39;63.63;97235.63;4183770;28;19960;-70
2024/03/28 02:09:51;;;;;;;;;;;;;;;8.49;63.14;97224.66;4180404;28;20333;-70
2024/03/28 02:11:54;;;;;;;;;;;;;;;8.53;63.37;97227.72;4180204;28;19916;-70
2024/03/28 02:13:55;;;;;;;;;;;;;;;8.42;63.38;97231.72;4180556;28;19919;-71
2024/03/28 02:15:55;;;;;;;;;;;;;;;8.39;63.28;97232.97;4180488;28;19917;-70
2024/03/28 02:17:56;;;;;;;;;;;;;;;8.41;63.26;97230.09;4179668;28;19913;-71
2024/03/28 02:19:57;;;;;;;;;;;;;;;8.24;63.23;97229.63;4180211;28;19914;-70
2024/03/28 02:21:58;;;;;;;;;;;;;;;8.31;63.23;97229.66;4180476;28;19912;-70
2024/03/28 02:23:59;;;;;;;;;;;;;;;8.26;63.07;97231.06;4162813;28;19935;-71
2024/03/28 02:25:59;;;;;;;;;;;;;;;8.23;63.54;97225.34;4190299;28;19924;-71
2024/03/28 02:27:59;;;;;;;;;;;;;;;8.22;63.41;97223.69;4190684;28;19917;-70
2024/03/28 02:30:01;;;;;;;;;;;;;;;8.32;62.81;97220.63;4191808;28;19919;-70
2024/03/28 02:32:01;;;;;;;;;;;;;;;8.31;62.79;97232.34;4192427;28;20007;-72
2024/03/28 02:34:02;;;;;;;;;;;;;;;8.20;62.93;97234.53;4192117;28;19943;-72
2024/03/28 02:36:03;;;;;;;;;;;;;;;8.26;62.83;97233.72;4193592;28;19912;-71
2024/03/28 02:38:03;;;;;;;;;;;;;;;8.36;62.44;97232.53;4189153;28;19966;-72
2024/03/28 02:40:04;;;;;;;;;;;;;;;8.25;62.50;97234.75;4172790;28;19996;-70
2024/03/28 02:42:05;;;;;;;;;;;;;;;8.18;62.70;97249.88;4166658;28;19935;-71
2024/03/28 02:44:05;;;;;;;;;;;;;;;8.36;62.34;97237.88;4164163;28;19913;-70
2024/03/28 02:46:06;;;;;;;;;;;;;;;8.22;62.54;97245.78;4170582;28;20008;-70
2024/03/28 02:48:07;;;;;;;;;;;;;;;8.34;62.17;97239.91;4177928;28;20353;-70
2024/03/28 02:50:08;;;;;;;;;;;;;;;8.33;62.24;97230.28;4171869;28;19943;-70
2024/03/28 02:52:09;;;;;;;;;;;;;;;8.25;62.00;97239.28;4155961;28;19909;-70
2024/03/28 02:54:09;;;;;;;;;;;;;;;8.25;61.99;97237.41;4145913;28;20429;-72
2024/03/28 02:56:10;;;;;;;;;;;;;;;8.30;61.96;97236.00;4164657;28;20317;-71
2024/03/28 02:58:10;;;;;;;;;;;;;;;8.15;62.09;97238.81;4165716;28;19913;-71
2024/03/28 03:00:11;;;;;;;;;;;;;;;8.24;61.86;97227.78;4163801;28;19913;-70
2024/03/28 03:02:11;;;;;;;;;;;;;;;8.20;61.74;97226.56;4176694;28;19920;-71
2024/03/28 03:04:11;;;;;;;;;;;;;;;8.25;61.77;97218.78;4173936;28;19913;-72
2024/03/28 03:06:12;;;;;;;;;;;;;;;8.24;61.53;97216.34;4175216;28;19917;-71
2024/03/28 03:08:12;;;;;;;;;;;;;;;8.09;62.01;97219.94;4187545;28;19942;-71
2024/03/28 03:10:13;;;;;;;;;;;;;;;8.02;62.11;97220.94;4171516;28;20008;-71
2024/03/28 03:12:13;;;;;;;;;;;;;;;8.12;61.80;97218.75;4168178;28;19913;-72
2024/03/28 03:14:13;;;;;;;;;;;;;;;8.09;61.78;97217.28;4162908;28;20374;-71
2024/03/28 03:16:14;;;;;;;;;;;;;;;8.12;61.22;97218.75;4158135;28;19960;-71
2024/03/28 03:18:14;;;;;;;;;;;;;;;8.05;61.63;97217.88;4169038;28;19913;-71
2024/03/28 03:20:14;;;;;;;;;;;;;;;7.94;62.09;97221.94;4170971;28;19953;-70
2024/03/28 03:22:15;;;;;;;;;;;;;;;7.82;62.13;97226.97;4178515;28;19959;-70
2024/03/28 03:24:16;;;;;;;;;;;;;;;7.94;61.92;97225.41;4179093;28;19938;-71
2024/03/28 03:26:25;;;;;;;;;;;;;;;7.92;61.66;97223.97;4163797;28;19924;-70
2024/03/28 03:35:23;;;;;;;;;;;;;;;8.03;60.97;97210.09;4172947;28;20587;-70
2024/03/28 03:37:25;;;;;;;;;;;;;;;7.82;61.17;97213.69;4165665;28;19917;-70
2024/03/28 03:39:25;;;;;;;;;;;;;;;7.81;61.33;97220.81;4175591;28;20120;-70
2024/03/28 03:41:26;;;;;;;;;;;;;;;7.88;61.36;97212.88;4170130;28;20297;-70
2024/03/28 03:43:26;;;;;;;;;;;;;;;7.87;61.15;97211.25;4171524;28;19924;-72
2024/03/28 03:45:27;;;;;;;;;;;;;;;7.89;60.95;97213.69;4170326;28;20473;-71
2024/03/28 03:47:27;;;;;;;;;;;;;;;7.86;61.34;97198.97;4171269;28;19916;-73
2024/03/28 03:49:28;;;;;;;;;;;;;;;7.93;61.08;97204.31;4183863;28;20004;-69
2024/03/28 03:51:28;;;;;;;;;;;;;;;7.97;60.98;97205.59;4182481;28;19909;-69
2024/03/28 03:53:28;;;;;;;;;;;;;;;7.97;60.88;97194.94;4183898;28;19931;-69
2024/03/28 03:55:29;;;;;;;;;;;;;;;7.83;61.36;97201.19;4183922;28;19908;-70
2024/03/28 03:57:30;;;;;;;;;;;;;;;7.88;61.24;97201.44;4182876;28;19913;-70
2024/03/28 03:59:30;;;;;;;;;;;;;;;7.74;61.58;97211.19;4182475;28;20530;-69
2024/03/28 04:01:30;;;;;;;;;;;;;;;7.81;61.28;97204.06;4183009;28;19916;-69
2024/03/28 04:03:31;;;;;;;;;;;;;;;7.75;61.37;97212.81;4182847;28;19909;-70
2024/03/28 04:05:33;;;;;;;;;;;;;;;7.79;61.18;97211.41;4186264;28;19943;-70
2024/03/28 04:07:34;;;;;;;;;;;;;;;7.76;61.50;97201.16;4187613;28;19931;-70
2024/03/28 04:09:34;;;;;;;;;;;;;;;7.78;61.45;97196.47;4186568;28;19966;-70
2024/03/28 04:11:36;;;;;;;;;;;;;;;7.64;61.57;97196.41;4186583;28;19912;-71
2024/03/28 04:13:37;;;;;;;;;;;;;;;7.72;61.34;97191.94;4189768;28;19931;-72
2024/03/28 04:15:37;;;;;;;;;;;;;;;7.76;61.47;97188.69;4199341;28;19980;-71
2024/03/28 04:17:37;;;;;;;;;;;;;;;7.73;61.13;97183.75;4199612;28;19899;-71
2024/03/28 04:19:38;;;;;;;;;;;;;;;7.48;61.66;97180.75;4199374;28;19909;-71
2024/03/28 04:21:38;;;;;;;;;;;;;;;7.58;61.37;97175.09;4193452;28;20320;-70
2024/03/28 04:23:39;;;;;;;;;;;;;;;7.52;61.54;97181.19;4183432;28;19912;-70
2024/03/28 04:25:39;;;;;;;;;;;;;;;7.46;61.99;97186.28;4182727;28;19909;-70
2024/03/28 04:27:39;;;;;;;;;;;;;;;7.44;61.64;97184.84;4182171;28;19938;-70
2024/03/28 04:29:43;;;;;;;;;;;;;;;7.33;61.82;97184.34;4189515;28;19915;-71
2024/03/28 04:31:43;;;;;;;;;;;;;;;7.38;61.99;97191.75;4187860;28;19909;-70
2024/03/28 04:33:43;;;;;;;;;;;;;;;7.40;61.80;97188.88;4187039;28;19916;-70
2024/03/28 04:35:47;;;;;;;;;;;;;;;7.56;61.56;97177.94;4182696;28;19954;-71
2024/03/28 04:37:47;;;;;;;;;;;;;;;7.43;61.82;97167.25;4181591;28;19916;-70
2024/03/28 04:39:47;;;;;;;;;;;;;;;7.52;61.59;97158.09;4181966;28;19912;-70
2024/03/28 04:41:48;;;;;;;;;;;;;;;7.41;61.62;97148.00;4181758;28;19952;-70
2024/03/28 04:43:48;;;;;;;;;;;;;;;7.40;61.60;97146.34;4181852;28;19955;-70
2024/03/28 04:45:48;;;;;;;;;;;;;;;7.34;61.65;97143.47;4181960;28;19919;-70
2024/03/28 04:47:49;;;;;;;;;;;;;;;7.16;61.94;97140.50;4181380;28;19909;-71
2024/03/28 04:49:50;;;;;;;;;;;;;;;7.25;61.71;97157.09;4163950;28;19909;-71
2024/03/28 04:51:50;;;;;;;;;;;;;;;7.28;61.58;97143.44;4181600;28;19915;-70
2024/03/28 04:53:50;;;;;;;;;;;;;;;7.30;61.58;97138.75;4163923;28;19916;-71
2024/03/28 04:55:51;;;;;;;;;;;;;;;7.19;61.51;97134.78;4181475;28;19909;-70
2024/03/28 04:57:51;;;;;;;;;;;;;;;7.45;60.93;97122.69;4180809;28;19908;-70
2024/03/28 04:59:51;;;;;;;;;;;;;;;7.26;61.22;97125.03;4181448;28;19909;-71
2024/03/28 05:01:52;;;;;;;;;;;;;;;7.31;60.72;97125.25;4181088;28;19920;-70
2024/03/28 05:03:52;;;;;;;;;;;;;;;7.23;61.09;97128.06;4181476;28;19923;-70
2024/03/28 05:05:53;;;;;;;;;;;;;;;7.33;60.90;97123.22;4181488;28;19999;-71
2024/03/28 05:07:54;;;;;;;;;;;;;;;7.29;60.99;97134.44;4181046;28;19912;-71
2024/03/28 05:09:54;;;;;;;;;;;;;;;7.03;61.22;97149.19;4181540;28;19959;-70
2024/03/28 05:11:55;;;;;;;;;;;;;;;7.16;61.22;97138.66;4181266;28;19973;-71
2024/03/28 05:13:55;;;;;;;;;;;;;;;7.09;61.45;97134.28;4181337;28;19987;-70
2024/03/28 05:15:56;;;;;;;;;;;;;;;7.16;61.17;97135.19;4181483;28;19912;-71
2024/03/28 05:17:56;;;;;;;;;;;;;;;7.21;60.96;97121.31;4185259;28;19974;-70
2024/03/28 05:19:56;;;;;;;;;;;;;;;7.17;60.95;97131.50;4170698;28;19916;-69
2024/03/28 05:21:57;;;;;;;;;;;;;;;7.24;60.86;97131.53;4182021;28;19909;-70
2024/03/28 05:23:57;;;;;;;;;;;;;;;7.19;60.94;97134.78;4182101;28;19909;-72
2024/03/28 05:25:58;;;;;;;;;;;;;;;7.28;60.53;97138.91;4183866;28;20388;-71
2024/03/28 05:27:58;;;;;;;;;;;;;;;7.12;60.92;97141.88;4193568;28;19984;-72
2024/03/28 05:29:58;;;;;;;;;;;;;;;7.09;61.01;97148.41;4189742;28;19909;-71
2024/03/28 05:31:59;;;;;;;;;;;;;;;7.05;61.28;97157.78;4181722;28;19935;-69
2024/03/28 05:34:00;;;;;;;;;;;;;;;6.95;61.52;97166.09;4181153;28;20299;-70
2024/03/28 05:36:00;;;;;;;;;;;;;;;7.02;61.52;97155.53;4181467;28;19915;-68
2024/03/28 05:38:01;;;;;;;;;;;;;;;7.14;61.31;97151.28;4163165;28;19909;-69
2024/03/28 05:40:01;;;;;;;;;;;;;;;7.40;60.67;97156.97;4163419;28;19909;-69
2024/03/28 05:42:02;;;;;;;;;;;;;;;7.43;60.35;97152.09;4182256;28;19923;-70
2024/03/28 05:44:02;;;;;;;;;;;;;;;7.25;61.14;97154.44;4163109;28;19909;-70
2024/03/28 05:46:03;;;;;;;;;;;;;;;7.21;60.89;97159.31;4180863;28;19913;-69
2024/03/28 05:48:03;;;;;;;;;;;;;;;7.22;61.03;97157.50;4180556;28;19916;-69
2024/03/28 05:50:04;;;;;;;;;;;;;;;7.09;60.96;97158.19;4180719;28;19909;-70
2024/03/28 05:52:04;;;;;;;;;;;;;;;7.21;60.96;97155.84;4180945;28;19915;-69
2024/03/28 05:54:05;;;;;;;;;;;;;;;7.13;60.79;97162.13;4180821;28;19934;-70
2024/03/28 05:56:05;;;;;;;;;;;;;;;7.02;61.22;97158.19;4180961;28;19920;-70
2024/03/28 05:58:05;;;;;;;;;;;;;;;7.20;60.78;97157.69;4180617;28;20271;-69
2024/03/28 06:00:06;;;;;;;;;;;;;;;7.27;60.77;97155.91;4181204;28;19963;-69
2024/03/28 06:02:07;;;;;;;;;;;;;;;7.17;60.84;97161.53;4180824;28;19979;-74
2024/03/28 06:04:07;;;;;;;;;;;;;;;7.19;60.61;97153.38;4163486;28;19958;-69
2024/03/28 06:06:08;;;;;;;;;;;;;;;7.29;60.33;97155.69;4181031;28;19913;-69
2024/03/28 06:08:08;;;;;;;;;;;;;;;7.43;59.79;97145.97;4180825;28;19920;-69
2024/03/28 06:10:09;;;;;;;;;;;;;;;7.55;59.21;97144.41;4188343;28;19908;-70
2024/03/28 06:12:09;;;;;;;;;;;;;;;7.49;59.07;97138.03;4193871;28;19982;-70
2024/03/28 06:14:10;;;;;;;;;;;;;;;7.79;58.42;97129.78;4189891;28;19919;-71
2024/03/28 06:16:10;;;;;;;;;;;;;;;7.80;58.35;97141.25;4188603;28;20253;-70
2024/03/28 06:18:13;;;;;;;;;;;;;;;7.88;58.12;97132.28;4190154;28;20308;-73
2024/03/28 06:20:14;;;;;;;;;;;;;;;7.90;57.63;97136.38;4191282;28;19916;-74
2024/03/28 06:22:17;;;;;;;;;;;;;;;8.06;57.18;97129.06;4184993;28;19912;-70
2024/03/28 06:24:18;;;;;;;;;;;;;;;8.06;57.15;97140.53;4180660;28;20257;-69
2024/03/28 06:26:18;;;;;;;;;;;;;;;8.10;56.93;97135.63;4179297;28;19920;-68
2024/03/28 06:28:19;;;;;;;;;;;;;;;8.11;56.57;97132.75;4179317;28;20003;-71
2024/03/28 06:30:25;;;;;;;;;;;;;;;8.19;56.55;97126.44;4180285;28;19935;-71
2024/03/28 06:32:26;;;;;;;;;;;;;;;8.17;56.58;97125.81;4162138;28;19966;-71
2024/03/28 06:34:26;;;;;;;;;;;;;;;8.08;56.66;97127.03;4179892;28;20523;-70
2024/03/28 06:36:27;;;;;;;;;;;;;;;8.13;56.55;97124.56;4179822;28;19909;-71
2024/03/28 06:38:27;;;;;;;;;;;;;;;8.13;56.81;97132.56;4179191;28;19916;-71
2024/03/28 06:40:27;;;;;;;;;;;;;;;8.27;56.19;97126.25;4179902;28;19940;-71
2024/03/28 06:42:28;;;;;;;;;;;;;;;8.27;56.74;97128.91;4179819;28;19915;-73
2024/03/28 06:44:28;;;;;;;;;;;;;;;8.20;56.60;97141.41;4182908;28;19908;-72
2024/03/28 06:46:28;;;;;;;;;;;;;;;8.28;56.61;97141.22;4191476;28;19913;-71
2024/03/28 06:48:29;;;;;;;;;;;;;;;8.25;56.75;97136.28;4192699;28;19914;-70
2024/03/28 06:50:29;;;;;;;;;;;;;;;8.31;56.77;97152.47;4186602;28;19916;-69
2024/03/28 06:52:30;;;;;;;;;;;;;;;8.30;57.06;97156.97;4182927;28;19908;-70
2024/03/28 06:54:30;;;;;;;;;;;;;;;8.66;56.24;97158.50;4180148;28;20355;-71
2024/03/28 06:56:31;;;;;;;;;;;;;;;8.40;56.90;97161.91;4180216;28;19908;-70
2024/03/28 06:58:31;;;;;;;;;;;;;;;8.53;56.59;97169.94;4179659;28;19909;-70
2024/03/28 07:00:31;;;;;;;;;;;;;;;8.62;56.19;97172.41;4179860;28;19916;-71
2024/03/28 07:02:32;;;;;;;;;;;;;;;8.32;56.84;97186.88;4179567;28;19913;-71
2024/03/28 07:04:32;;;;;;;;;;;;;;;8.25;56.86;97191.38;4179831;28;20000;-69
2024/03/28 07:06:33;;;;;;;;;;;;;;;8.30;56.81;97201.41;4179785;28;20003;-70
2024/03/28 07:08:33;;;;;;;;;;;;;;;8.12;57.20;97197.47;4178420;28;19923;-71
2024/03/28 07:10:33;;;;;;;;;;;;;;;8.32;57.17;97216.16;4180125;28;19908;-70
2024/03/28 07:12:37;;;;;;;;;;;;;;;8.27;57.65;97223.91;4180724;28;19908;-71
2024/03/28 07:14:38;;;;;;;;;;;;;;;8.02;58.30;97226.28;4182000;28;19955;-70
2024/03/28 07:16:38;;;;;;;;;;;;;;;8.22;59.20;97235.13;4179631;28;19909;-70
2024/03/28 07:18:39;;;;;;;;;;;;;;;8.27;59.41;97238.03;4178842;28;20400;-71
2024/03/28 07:20:39;;;;;;;;;;;;;;;8.32;59.87;97241.94;4179536;28;19916;-70
2024/03/28 07:22:39;;;;;;;;;;;;;;;7.80;61.33;97252.94;4179632;28;19909;-70
2024/03/28 07:24:40;;;;;;;;;;;;;;;8.09;61.86;97253.72;4180781;28;19909;-71
2024/03/28 07:26:41;;;;;;;;;;;;;;;7.94;62.12;97257.31;4180403;28;19948;-71
2024/03/28 07:28:41;;;;;;;;;;;;;;;8.04;62.38;97256.13;4179859;28;20391;-71
2024/03/28 07:30:42;;;;;;;;;;;;;;;8.15;62.03;97244.94;4163004;28;19908;-70
2024/03/28 07:32:44;;;;;;;;;;;;;;;8.16;62.34;97230.63;4188576;28;19932;-71
2024/03/28 07:34:44;;;;;;;;;;;;;;;8.16;62.75;97235.13;4182599;28;19912;-71
2024/03/28 07:36:44;;;;;;;;;;;;;;;8.03;63.09;97246.53;4182098;28;20312;-71
2024/03/28 07:38:45;;;;;;;;;;;;;;;7.90;63.27;97234.81;4181716;28;20439;-73
2024/03/28 07:40:49;;;;;;;;;;;;;;;8.08;63.32;97238.78;4184393;28;20385;-71
2024/03/28 07:42:50;;;;;;;;;;;;;;;8.14;63.52;97232.66;4179641;28;19909;-71
2024/03/28 07:44:50;;;;;;;;;;;;;;;8.32;63.31;97225.97;4179441;28;20278;-71
2024/03/28 07:46:51;;;;;;;;;;;;;;;8.20;63.39;97247.84;4178912;28;19913;-72
2024/03/28 07:48:51;;;;;;;;;;;;;;;8.34;63.09;97263.84;4178550;28;19958;-72
2024/03/28 07:50:55;;;;;;;;;;;;;;;8.33;63.08;97257.72;4178974;28;19916;-71
2024/03/28 07:52:56;;;;;;;;;;;;;;;8.45;63.58;97262.47;4178907;28;19913;-71
2024/03/28 07:54:56;;;;;;;;;;;;;;;8.45;63.67;97265.16;4179242;28;20445;-71
2024/03/28 07:56:57;;;;;;;;;;;;;;;8.30;63.92;97268.75;4179369;28;19909;-71
2024/03/28 07:58:57;;;;;;;;;;;;;;;8.40;63.52;97263.88;4178366;28;19920;-71
2024/03/28 08:01:07;;;;;;;;;;;;;;;8.38;63.89;97257.13;4178890;28;20353;-72
2024/03/28 08:03:08;;;;;;;;;;;;;;;8.57;62.78;97258.22;4178801;28;19909;-72
2024/03/28 08:05:08;;;;;;;;;;;;;;;8.71;62.59;97248.44;4179254;28;19915;-71
2024/03/28 08:07:08;;;;;;;;;;;;;;;8.84;62.69;97261.81;4179905;28;19913;-70
2024/03/28 08:09:09;;;;;;;;;;;;;;;8.72;63.04;97271.41;4178136;28;19916;-72
2024/03/28 08:11:09;;;;;;;;;;;;;;;8.84;62.51;97268.97;4179000;28;20373;-71
2024/03/28 08:13:10;;;;;;;;;;;;;;;8.63;63.38;97277.91;4178795;28;19916;-72
2024/03/28 08:15:11;;;;;;;;;;;;;;;8.68;63.52;97270.97;4178923;28;19909;-71
2024/03/28 08:17:11;;;;;;;;;;;;;;;8.68;62.98;97286.16;4178737;28;19970;-73
2024/03/28 08:19:13;;;;;;;;;;;;;;;8.75;63.27;97292.31;4178912;28;20308;-71
2024/03/28 08:21:15;;;;;;;;;;;;;;;8.86;62.51;97299.72;4164517;28;20393;-71
2024/03/28 08:23:15;;;;;;;;;;;;;;;8.66;63.55;97304.16;4178923;28;19909;-71
2024/03/28 08:25:16;;;;;;;;;;;;;;;8.72;62.75;97306.03;4179521;28;19913;-70
2024/03/28 08:27:16;;;;;;;;;;;;;;;8.89;62.13;97309.16;4162070;28;19967;-71
2024/03/28 08:29:16;;;;;;;;;;;;;;;8.95;61.70;97310.19;4190935;28;20397;-71
2024/03/28 08:31:17;;;;;;;;;;;;;;;8.94;62.14;97304.03;4193191;28;20097;-73
2024/03/28 08:33:17;;;;;;;;;;;;;;;8.99;62.29;97311.41;4191277;28;20105;-71
2024/03/28 08:35:18;;;;;;;;;;;;;;;8.91;62.13;97315.09;4185506;28;19935;-72
2024/03/28 08:37:19;;;;;;;;;;;;;;;8.86;62.35;97322.88;4181924;28;19909;-71
2024/03/28 08:39:24;;;;;;;;;;;;;;;9.03;62.12;97316.13;4181664;28;19909;-71
2024/03/28 08:41:24;;;;;;;;;;;;;;;9.17;61.84;97327.66;4182009;28;19916;-71
2024/03/28 08:43:25;;;;;;;;;;;;;;;8.85;62.49;97321.22;4164644;28;19908;-72
2024/03/28 08:45:25;;;;;;;;;;;;;;;9.01;62.45;97312.03;4184003;28;19939;-72
2024/03/28 08:47:26;;;;;;;;;;;;;;;9.08;61.97;97320.06;4167839;28;19920;-71
2024/03/28 08:49:28;;;;;;;;;;;;;;;8.85;63.00;97327.38;4182398;28;19908;-71
2024/03/28 08:51:28;;;;;;;;;;;;;;;8.84;62.92;97343.56;4183666;28;19909;-71
2024/03/28 08:53:29;;;;;;;;;;;;;;;9.07;62.55;97353.88;4182004;28;20443;-71
2024/03/28 08:55:29;;;;;;;;;;;;;;;8.96;62.60;97373.13;4181741;28;20675;-71
2024/03/28 08:57:29;;;;;;;;;;;;;;;8.99;62.70;97394.03;4181043;28;20317;-70
2024/03/28 08:59:30;;;;;;;;;;;;;;;8.90;63.48;97401.38;4183960;28;19912;-72
2024/03/28 09:01:30;;;;;;;;;;;;;;;9.08;62.88;97398.16;4181455;28;19914;-71
2024/03/28 09:03:31;;;;;;;;;;;;;;;9.23;62.55;97391.84;4181539;28;19948;-71
2024/03/28 09:05:32;;;;;;;;;;;;;;;9.19;62.31;97402.91;4181454;28;19924;-71
2024/03/28 09:07:33;;;;;;;;;;;;;;;9.17;62.39;97410.28;4180974;28;20281;-71
2024/03/28 09:09:35;;;;;;;;;;;;;;;9.21;62.54;97424.88;4180492;28;19917;-72
2024/03/28 09:11:35;;;;;;;;;;;;;;;9.49;62.30;97423.09;4181234;28;19939;-72
2024/03/28 09:13:36;;;;;;;;;;;;;;;9.32;62.75;97401.31;4180976;28;19921;-71
2024/03/28 09:15:37;;;;;;;;;;;;;;;9.35;62.89;97398.25;4182513;28;19909;-71
2024/03/28 09:17:38;;;;;;;;;;;;;;;9.51;62.62;97416.53;4181416;28;19931;-72
2024/03/28 09:19:38;;;;;;;;;;;;;;;9.60;62.39;97425.16;4188655;28;19916;-72
2024/03/28 09:21:39;;;;;;;;;;;;;;;9.83;61.87;97422.09;4186898;28;19909;-71
2024/03/28 09:23:39;;;;;;;;;;;;;;;9.79;61.92;97431.56;4181109;28;19916;-72
2024/03/28 09:25:40;;;;;;;;;;;;;;;9.74;62.29;97433.19;4181208;28;19908;-71
2024/03/28 09:27:40;;;;;;;;;;;;;;;9.77;62.03;97425.59;4180568;28;20001;-71
2024/03/28 09:29:44;;;;;;;;;;;;;;;10.01;61.68;97431.38;4180813;28;20397;-70
2024/03/28 09:31:48;;;;;;;;;;;;;;;10.17;61.58;97439.97;4180962;28;19966;-71
2024/03/28 09:33:48;;;;;;;;;;;;;;;10.25;61.21;97440.56;4181575;28;19914;-71
2024/03/28 09:35:49;;;;;;;;;;;;;;;10.16;61.26;97439.16;4181164;28;20475;-71
2024/03/28 09:37:49;;;;;;;;;;;;;;;10.08;61.63;97440.19;4180202;28;19909;-70
2024/03/28 09:39:49;;;;;;;;;;;;;;;10.15;61.38;97434.88;4179532;28;19916;-71
2024/03/28 09:41:50;;;;;;;;;;;;;;;10.05;61.53;97440.59;4180397;28;19948;-72
2024/03/28 09:43:55;;;;;;;;;;;;;;;10.22;61.18;97429.50;4180565;28;20415;-71
2024/03/28 09:45:58;;;;;;;;;;;;;;;10.16;60.97;97428.47;4180472;28;19923;-71
2024/03/28 09:47:59;;;;;;;;;;;;;;;10.32;60.46;97429.91;4179118;28;19908;-71
2024/03/28 09:50:00;;;;;;;;;;;;;;;10.43;60.03;97429.31;4180408;28;19919;-71
2024/03/28 09:52:01;;;;;;;;;;;;;;;10.55;59.48;97436.69;4180502;28;19912;-71
2024/03/28 09:54:05;;;;;;;;;;;;;;;10.52;59.33;97443.28;4180823;28;19908;-71
2024/03/28 09:56:07;;;;;;;;;;;;;;;10.59;58.89;97448.59;4180414;28;19908;-71
2024/03/28 09:58:09;;;;;;;;;;;;;;;10.83;58.35;97456.97;4180202;28;19983;-71
2024/03/28 10:00:11;;;;;;;;;;;;;;;10.77;58.56;97459.44;4180523;28;19915;-71
2024/03/28 10:02:12;;;;;;;;;;;;;;;10.91;58.17;97470.91;4163945;28;19920;-71
2024/03/28 10:04:12;;;;;;;;;;;;;;;10.91;57.88;97465.56;4166726;28;19909;-71
2024/03/28 10:06:13;;;;;;;;;;;;;;;10.69;57.96;97462.34;4181070;28;20024;-71
2024/03/28 10:08:13;;;;;;;;;;;;;;;11.03;57.57;97468.44;4179427;28;19963;-71
2024/03/28 10:10:14;;;;;;;;;;;;;;;11.06;57.62;97456.50;4180483;28;19909;-71
2024/03/28 10:12:14;;;;;;;;;;;;;;;11.00;57.55;97460.03;4162638;28;19960;-71
2024/03/28 10:14:16;;;;;;;;;;;;;;;11.09;57.39;97450.72;4180741;28;19909;-70
2024/03/28 10:16:20;;;;;;;;;;;;;;;11.05;56.98;97452.97;4180604;28;19920;-70
2024/03/28 10:18:21;;;;;;;;;;;;;;;11.16;56.86;97464.06;4179785;28;19909;-70
2024/03/28 10:20:24;;;;;;;;;;;;;;;11.45;56.46;97477.91;4180486;28;19909;-70
2024/03/28 10:22:24;;;;;;;;;;;;;;;11.17;56.89;97474.56;4181472;28;19996;-71
2024/03/28 10:24:25;;;;;;;;;;;;;;;11.26;56.77;97485.81;4181816;28;20525;-71
2024/03/28 10:26:32;;;;;;;;;;;;;;;11.49;55.62;97477.28;4190070;28;19913;-70
2024/03/28 10:28:34;;;;;;;;;;;;;;;11.74;55.39;97478.38;4189694;28;19935;-70
2024/03/28 10:30:35;;;;;;;;;;;;;;;11.89;55.00;97462.88;4188753;28;19916;-70
2024/03/28 10:32:35;;;;;;;;;;;;;;;12.01;55.07;97469.19;4182050;28;19916;-70
2024/03/28 10:34:35;;;;;;;;;;;;;;;12.11;54.39;97481.25;4187196;28;19931;-70
2024/03/28 10:36:36;;;;;;;;;;;;;;;12.15;53.95;97477.94;4186906;28;19912;-71
2024/03/28 10:38:36;;;;;;;;;;;;;;;12.15;53.74;97487.84;4185412;28;19918;-71
2024/03/28 10:40:37;;;;;;;;;;;;;;;12.09;53.38;97480.69;4186584;28;19932;-71
2024/03/28 10:42:39;;;;;;;;;;;;;;;11.99;53.38;97487.34;4186108;28;19940;-71